Time;durP1;ratioP1;P1;durP2;ratioP2;P2;SDS_P1;SDS_P2;PMS_P1;PMS_P2;Temp;Humidity;BMP_temperature;BMP_pressure;BME280_temperature;BME280_humidity;BME280_pressure;Samples;Min_cycle;Max_cycle;Signal;HPM_P1;HPM_P2
2023/05/21 00:00:50;;;;;;;;;18.00;15.00;;;;;18.92;58.12;100548.44;146614;567;46010;-66
2023/05/21 00:03:49;;;;;;;;;13.50;12.00;;;;;18.90;58.82;100544.88;146609;592;46016;-66
2023/05/21 00:07:02;;;;;;;;;;;;;;;;;;;;;
2023/05/21 00:10:07;;;;;;;;;12.25;11.50;;;;;18.91;58.92;100541.41;146608;620;47014;-65
2023/05/21 00:13:16;;;;;;;;;14.75;12.50;;;;;17.40;58.23;100283.59;146611;614;46020;-65
2023/05/21 00:16:17;;;;;;;;;15.75;13.50;;;;;18.85;58.54;100541.31;146609;649;46015;-65
2023/05/21 00:19:50;;;;;;;;;14.00;12.75;;;;;16.04;57.58;100062.16;146613;584;47010;-65
2023/05/21 00:22:58;;;;;;;;;;;;;;;;;;;;;
2023/05/21 00:26:03;;;;;;;;;11.00;10.75;;;;;18.75;59.38;100534.16;146611;679;47010;-66
2023/05/21 00:29:04;;;;;;;;;16.00;12.75;;;;;18.76;60.05;100528.94;146611;598;46016;-65
2023/05/21 00:32:11;;;;;;;;;14.75;13.00;;;;;18.72;59.96;100529.69;146612;580;46010;-64
2023/05/21 00:35:15;;;;;;;;;;;;;;;;;;;;;
2023/05/21 00:38:20;;;;;;;;;14.75;14.00;;;;;18.66;60.57;100520.00;146607;709;46020;-66
2023/05/21 00:41:26;;;;;;;;;15.50;14.00;;;;;15.65;60.29;100016.09;146612;575;46012;-65
2023/05/21 00:44:44;;;;;;;;;11.00;11.00;;;;;18.49;61.27;100525.84;146614;589;46020;-64
2023/05/21 00:48:07;;;;;;;;;;;;;;;;;;;;;
2023/05/21 00:51:22;;;;;;;;;12.00;10.50;;;;;18.50;61.33;100514.47;146613;591;47010;-65
2023/05/21 00:54:28;;;;;;;;;13.50;13.50;;;;;18.60;59.76;100512.03;146613;721;46035;-65
2023/05/21 00:57:35;;;;;;;;;14.25;11.50;;;;;18.68;59.90;100501.63;146613;694;46020;-65
2023/05/21 01:00:42;;;;;;;;;17.00;14.00;;;;;18.74;57.51;100496.50;146607;683;48015;-66
2023/05/21 01:03:37;;;;;;;;;14.25;11.00;;;;;18.82;58.15;100489.62;146613;622;46020;-65
2023/05/21 01:06:35;;;;;;;;;14.00;11.75;;;;;18.92;58.47;100490.63;146609;583;46916;-66
2023/05/21 01:09:48;;;;;;;;;14.75;12.00;;;;;18.94;58.83;100483.66;146607;642;46021;-65
2023/05/21 01:13:13;;;;;;;;;12.00;10.75;;;;;18.95;57.88;100480.16;146607;663;47012;-65
2023/05/21 01:16:21;;;;;;;;;13.00;12.25;;;;;18.91;58.99;100474.00;146613;683;46021;-64
2023/05/21 01:19:37;;;;;;;;;14.25;12.00;;;;;18.92;58.69;100475.75;146611;696;46012;-65
2023/05/21 01:22:57;;;;;;;;;13.25;12.00;;;;;18.85;57.89;100479.16;146610;618;46010;-64
2023/05/21 01:26:02;;;;;;;;;10.00;10.00;;;;;18.81;58.40;100477.31;146613;595;46012;-65
2023/05/21 01:29:25;;;;;;;;;15.25;11.00;;;;;18.78;58.90;100472.03;146615;578;46020;-64
2023/05/21 01:33:27;;;;;;;;;10.00;10.00;;;;;15.66;58.21;99930.72;146612;573;46034;-64
2023/05/21 01:37:02;;;;;;;;;11.50;11.50;;;;;18.76;57.95;100465.91;146613;668;46020;-63
2023/05/21 01:40:19;;;;;;;;;12.00;11.50;;;;;18.77;59.97;100453.63;146612;630;46012;-63
2023/05/21 01:43:39;;;;;;;;;10.00;9.00;;;;;18.81;58.18;100453.69;146606;575;47010;-63
2023/05/21 01:46:48;;;;;;;;;;;;;;;;;;;;;
2023/05/21 01:49:53;;;;;;;;;10.50;10.00;;;;;18.76;60.18;100437.00;146612;646;46020;-64
2023/05/21 01:53:17;;;;;;;;;13.75;12.75;;;;;15.60;58.33;99900.13;146606;569;47017;-63
2023/05/21 01:56:14;;;;;;;;;12.75;9.25;;;;;18.70;60.63;100437.75;146613;603;47010;-64
2023/05/21 01:59:16;;;;;;;;;13.50;11.75;;;;;18.70;59.90;100427.25;146616;604;46017;-65
2023/05/21 02:02:14;;;;;;;;;15.00;13.00;;;;;18.72;60.11;100432.50;146613;624;46021;-64
2023/05/21 02:05:22;;;;;;;;;16.00;14.00;;;;;15.79;58.93;99921.38;146610;605;46016;-65
2023/05/21 02:08:24;;;;;;;;;14.50;12.50;;;;;18.74;60.76;100428.22;146612;604;46011;-63
2023/05/21 02:11:37;;;;;;;;;15.00;13.25;;;;;16.08;59.28;99967.22;146610;641;46014;-63
2023/05/21 02:14:51;;;;;;;;;;;;;;;;;;;;;
2023/05/21 02:18:01;;;;;;;;;;;;;;;;;;;;;
2023/05/21 02:21:03;;;;;;;;;11.25;11.00;;;;;18.51;60.75;100417.38;146612;563;46012;-62
2023/05/21 02:23:55;;;;;;;;;13.00;13.00;;;;;18.44;60.65;100403.28;146610;649;46013;-61
2023/05/21 02:27:01;;;;;;;;;13.00;13.00;;;;;18.53;60.77;100413.00;146613;623;47010;-63
2023/05/21 02:30:20;;;;;;;;;16.75;13.75;;;;;15.59;60.11;99905.34;146611;630;46014;-63
2023/05/21 02:33:14;;;;;;;;;11.75;11.75;;;;;18.56;60.56;100412.16;146611;593;46020;-67
2023/05/21 02:36:17;;;;;;;;;14.75;11.25;;;;;18.52;59.96;100413.87;146609;614;47012;-67
2023/05/21 02:39:12;;;;;;;;;12.25;11.00;;;;;18.51;61.16;100411.25;146615;631;46020;-65
2023/05/21 02:42:19;;;;;;;;;17.00;14.00;;;;;18.51;60.41;100413.87;146610;584;47012;-66
2023/05/21 02:45:17;;;;;;;;;14.00;13.00;;;;;18.46;60.62;100409.41;146604;568;46031;-65
2023/05/21 02:48:33;;;;;;;;;16.25;12.50;;;;;15.88;60.05;99960.75;146608;591;46917;-65
2023/05/21 02:51:38;;;;;;;;;13.00;10.75;;;;;18.44;61.30;100405.00;146613;628;46020;-62
2023/05/21 02:54:30;;;;;;;;;14.00;13.00;;;;;18.42;62.12;100401.50;146610;600;46031;-64
2023/05/21 02:57:25;;;;;;;;;13.75;12.75;;;;;18.40;61.88;100405.81;146613;604;46012;-65
2023/05/21 03:00:27;;;;;;;;;12.00;12.00;;;;;18.37;61.30;100411.91;146611;603;46017;-64
2023/05/21 03:03:41;;;;;;;;;14.25;13.00;;;;;18.39;61.76;100409.31;146611;632;46010;-65
2023/05/21 03:06:53;;;;;;;;;15.25;12.75;;;;;15.54;61.43;99915.69;146609;572;47013;-63
2023/05/21 03:10:02;;;;;;;;;11.50;11.00;;;;;18.30;61.15;100403.94;146606;590;47010;-62
2023/05/21 03:13:09;;;;;;;;;13.75;12.00;;;;;18.29;60.56;100404.81;146611;650;46012;-63
2023/05/21 03:16:22;;;;;;;;;12.00;11.00;;;;;18.34;60.44;100417.09;146606;582;46012;-64
2023/05/21 03:19:21;;;;;;;;;14.00;12.00;;;;;18.38;61.28;100411.06;146607;604;47016;-65
2023/05/21 03:22:20;;;;;;;;;15.25;12.25;;;;;18.41;61.24;100413.75;146611;603;46019;-64
2023/05/21 03:25:16;;;;;;;;;19.75;16.25;;;;;18.42;59.88;100407.63;146611;633;46012;-65
2023/05/21 03:28:40;;;;;;;;;18.75;15.00;;;;;18.47;59.25;100405.03;146612;618;46021;-64
2023/05/21 03:32:05;;;;;;;;;;;;;;;;;;;;;
2023/05/21 03:35:10;;;;;;;;;20.50;15.75;;;;;18.63;58.47;100430.66;146613;661;46010;-63
2023/05/21 03:38:07;;;;;;;;;19.75;15.75;;;;;18.64;58.56;100431.53;146607;593;46917;-63
2023/05/21 03:41:21;;;;;;;;;;;;;;;;;;;;;
2023/05/21 03:44:35;;;;;;;;;;;;;;;;;;;;;
2023/05/21 03:47:44;;;;;;;;;15.75;15.25;;;;;18.68;57.95;100428.97;146627;602;45020;-64
2023/05/21 03:50:51;;;;;;;;;24.00;19.00;;;;;18.71;58.78;100428.13;146634;681;45017;-63
2023/05/21 03:53:50;;;;;;;;;17.00;14.25;;;;;18.70;59.34;100434.25;146629;631;45020;-64
2023/05/21 03:56:48;;;;;;;;;16.25;15.75;;;;;18.65;59.57;100430.69;146631;570;45016;-63
2023/05/21 04:00:03;;;;;;;;;;;;;;;;;;;;;
2023/05/21 04:03:05;;;;;;;;;16.75;14.25;;;;;18.70;59.21;100429.00;146634;593;45016;-64
2023/05/21 04:06:13;;;;;;;;;16.25;15.00;;;;;18.78;59.40;100426.50;146634;564;45021;-63
2023/05/21 04:09:27;;;;;;;;;13.25;12.75;;;;;18.86;59.93;100438.00;146632;592;46012;-62
2023/05/21 04:12:27;;;;;;;;;18.25;17.25;;;;;18.90;61.42;100435.41;146633;685;45010;-63
2023/05/21 04:15:54;;;;;;;;;20.25;17.25;;;;;18.90;62.14;100438.03;146634;679;45915;-63
2023/05/21 04:18:49;;;;;;;;;15.25;14.00;;;;;18.85;62.92;100437.13;146628;726;46010;-63
2023/05/21 04:21:44;;;;;;;;;17.75;15.50;;;;;18.81;62.13;100431.78;146634;613;45012;-63
2023/05/21 04:25:02;;;;;;;;;;;;;;;;;;;;;
2023/05/21 04:27:56;;;;;;;;;17.75;15.00;;;;;18.87;63.66;100431.88;146632;585;45914;-63
2023/05/21 04:30:57;;;;;;;;;18.75;14.50;;;;;18.87;63.28;100440.63;146631;599;45020;-63
2023/05/21 04:34:03;;;;;;;;;15.00;13.50;;;;;18.87;61.53;100445.00;146632;604;45016;-64
2023/05/21 04:37:03;;;;;;;;;14.50;14.25;;;;;18.89;62.55;100438.91;146631;573;45021;-64
2023/05/21 04:39:57;;;;;;;;;13.50;13.00;;;;;18.96;62.40;100444.25;146608;571;47918;-64
2023/05/21 04:43:15;;;;;;;;;16.50;15.00;;;;;16.25;59.85;99966.62;146610;718;46020;-63
2023/05/21 04:46:16;;;;;;;;;14.50;12.00;;;;;19.06;61.55;100452.25;146609;647;46014;-63
2023/05/21 04:49:14;;;;;;;;;16.00;15.25;;;;;19.09;62.23;100454.91;146607;591;46021;-64
2023/05/21 04:52:26;;;;;;;;;;;;;;;;;;;;;
2023/05/21 04:55:34;;;;;;;;;18.00;14.75;;;;;16.12;60.94;99935.03;146611;596;46020;-63
2023/05/21 04:58:39;;;;;;;;;16.25;14.00;;;;;19.17;62.60;100459.41;146612;569;46033;-63
2023/05/21 05:01:36;;;;;;;;;19.75;16.25;;;;;18.59;64.36;100357.06;146703;569;46022;-63
2023/05/21 05:04:37;;;;;;;;;16.25;13.00;;;;;19.20;65.64;100457.69;146613;582;46016;-65
2023/05/21 05:07:42;;;;;;;;;14.75;14.00;;;;;19.20;64.08;100448.94;146620;609;46010;-63
2023/05/21 05:10:43;;;;;;;;;17.75;16.00;;;;;19.19;63.68;100457.66;146615;593;47012;-62
2023/05/21 05:14:08;;;;;;;;;;;;;;;;;;;;;
2023/05/21 05:17:15;;;;;;;;;17.50;14.50;;;;;19.09;63.39;100452.28;146614;574;47012;-64
2023/05/21 05:20:21;;;;;;;;;15.50;14.50;;;;;19.09;62.80;100457.53;146619;659;46012;-63
2023/05/21 05:23:22;;;;;;;;;12.25;10.00;;;;;19.11;62.83;100454.97;146617;602;46013;-65
2023/05/21 05:26:18;;;;;;;;;17.75;16.00;;;;;19.15;63.76;100454.13;146622;615;46020;-64
2023/05/21 05:29:30;;;;;;;;;18.75;17.00;;;;;19.21;64.18;100456.81;146614;628;46016;-63
2023/05/21 05:32:31;;;;;;;;;19.50;15.25;;;;;19.25;64.01;100457.72;146619;588;47012;-63
2023/05/21 05:35:39;;;;;;;;;16.25;16.00;;;;;18.88;62.58;100396.87;146613;615;46016;-64
2023/05/21 05:38:38;;;;;;;;;18.75;16.75;;;;;19.21;65.20;100458.56;146616;660;47021;-63
2023/05/21 05:41:40;;;;;;;;;13.00;12.50;;;;;19.17;65.21;100460.28;146610;606;46014;-64
2023/05/21 05:44:36;;;;;;;;;16.25;15.75;;;;;19.17;65.55;100460.28;146616;613;47010;-64
2023/05/21 05:47:34;;;;;;;;;14.50;14.50;;;;;19.19;65.01;100452.41;146615;583;46917;-64
2023/05/21 05:50:50;;;;;;;;;15.75;14.75;;;;;19.20;64.42;100455.06;146614;728;46020;-65
2023/05/21 05:53:50;;;;;;;;;15.00;14.25;;;;;19.22;64.68;100452.44;146613;571;46017;-64
2023/05/21 05:56:48;;;;;;;;;15.50;13.50;;;;;19.23;66.36;100463.00;146613;672;46012;-64
2023/05/21 05:59:48;;;;;;;;;16.25;13.25;;;;;19.18;67.64;100463.78;146616;577;46016;-64
2023/05/21 06:02:52;;;;;;;;;15.50;15.50;;;;;19.12;67.10;100456.72;146621;611;46010;-64
2023/05/21 06:05:54;;;;;;;;;17.50;16.50;;;;;19.13;68.24;100453.25;146620;584;46014;-64
2023/05/21 06:09:00;;;;;;;;;17.00;14.75;;;;;19.14;68.25;100447.09;146622;575;46021;-65
2023/05/21 06:11:56;;;;;;;;;15.75;14.25;;;;;19.17;67.50;100455.03;146618;577;46012;-64
2023/05/21 06:15:13;;;;;;;;;18.00;16.50;;;;;16.55;65.59;100008.09;146625;590;46010;-64
2023/05/21 06:18:26;;;;;;;;;16.50;15.75;;;;;19.13;68.03;100456.75;146621;568;46014;-64
2023/05/21 06:21:28;;;;;;;;;19.50;16.25;;;;;19.09;67.80;100449.66;146627;580;46010;-64
2023/05/21 06:24:30;;;;;;;;;17.25;17.25;;;;;19.05;68.26;100449.63;146620;571;46917;-65
2023/05/21 06:27:58;;;;;;;;;;;;;;;;;;;;;
2023/05/21 06:30:55;;;;;;;;;14.50;14.00;;;;;19.03;67.11;100451.34;146616;613;46921;-64
2023/05/21 06:33:49;;;;;;;;;17.50;15.25;;;;;19.05;68.95;100447.88;146624;602;46010;-64
2023/05/21 06:36:41;;;;;;;;;18.25;16.25;;;;;19.10;67.56;100448.81;146618;566;46016;-64
2023/05/21 06:39:50;;;;;;;;;;;;;;;;;;;;;
2023/05/21 06:42:47;;;;;;;;;15.00;14.75;;;;;19.20;65.84;100449.81;146617;592;46016;-64
2023/05/21 06:45:59;;;;;;;;;18.25;17.75;;;;;16.43;63.46;99961.69;146622;578;45021;-64
2023/05/21 06:49:05;;;;;;;;;14.25;13.25;;;;;19.28;65.22;100453.41;146619;570;46016;-69
2023/05/21 06:52:10;;;;;;;;;15.25;14.75;;;;;19.36;65.84;100453.50;146623;570;46021;-68
2023/05/21 06:55:27;;;;;;;;;19.50;18.25;;;;;16.78;64.12;99995.38;146619;604;46016;-68
2023/05/21 06:58:44;;;;;;;;;17.75;14.50;;;;;18.29;64.73;100245.59;146623;570;46010;-70
2023/05/21 07:02:00;;;;;;;;;19.00;15.75;;;;;19.56;64.66;100453.69;146618;600;46017;-65
2023/05/21 07:05:05;;;;;;;;;17.00;15.00;;;;;19.56;65.93;100459.88;146621;563;46020;-68
2023/05/21 07:08:36;;;;;;;;;;;;;;;;;;;;;
2023/05/21 07:11:31;;;;;;;;;13.75;13.00;;;;;19.59;66.20;100459.00;146623;604;46010;-70
2023/05/21 07:14:30;;;;;;;;;18.25;16.25;;;;;19.57;66.53;100464.25;146621;650;45041;-69
2023/05/21 07:17:26;;;;;;;;;17.00;16.25;;;;;19.49;65.98;100458.00;146623;602;45040;-70
2023/05/21 07:20:32;;;;;;;;;16.00;14.25;;;;;19.42;67.78;100460.56;146617;676;46012;-73
2023/05/21 07:23:31;;;;;;;;;14.75;14.25;;;;;19.38;67.66;100460.53;146625;566;46010;-67
2023/05/21 07:26:38;;;;;;;;;12.00;11.00;;;;;19.30;69.73;100462.19;146619;635;46012;-66
2023/05/21 07:29:52;;;;;;;;;;;;;;;;;;;;;
2023/05/21 07:32:53;;;;;;;;;16.00;15.25;;;;;19.13;69.15;100466.38;146617;585;46016;-66
2023/05/21 07:36:09;;;;;;;;;18.00;15.25;;;;;16.63;66.66;100043.09;146627;585;45012;-67
2023/05/21 07:39:13;;;;;;;;;17.25;15.25;;;;;19.15;66.08;100467.25;146618;569;45916;-66
2023/05/21 07:42:18;;;;;;;;;17.25;14.50;;;;;19.16;66.97;100461.16;146621;586;46020;-76
2023/05/21 07:45:28;;;;;;;;;14.00;14.00;;;;;19.18;64.68;100472.56;146619;599;46013;-65
2023/05/21 07:48:31;;;;;;;;;24.75;21.75;;;;;19.20;65.87;100475.22;146625;611;46010;-66
2023/05/21 07:51:34;;;;;;;;;16.75;14.00;;;;;19.21;66.50;100474.34;146620;625;46032;-67
2023/05/21 07:54:35;;;;;;;;;12.25;11.75;;;;;19.18;66.06;100472.56;146623;686;46020;-69
2023/05/21 07:57:38;;;;;;;;;17.25;15.75;;;;;19.20;66.26;100476.09;146616;726;46024;-70
2023/05/21 08:00:47;;;;;;;;;14.00;12.50;;;;;19.21;65.35;100472.59;146624;583;46021;-69
2023/05/21 08:03:52;;;;;;;;;14.25;11.25;;;;;19.25;66.34;100478.75;146618;637;46016;-69
2023/05/21 08:06:48;;;;;;;;;11.50;11.25;;;;;19.22;66.72;100483.97;146623;628;46021;-68
2023/05/21 08:09:46;;;;;;;;;13.25;11.00;;;;;19.21;66.12;100475.22;146618;622;46014;-68
2023/05/21 08:12:44;;;;;;;;;13.00;11.00;;;;;19.24;65.55;100483.16;146622;640;47010;-68
2023/05/21 08:15:54;;;;;;;;;13.00;10.50;;;;;19.30;65.91;100483.22;146621;576;46016;-66
2023/05/21 08:18:52;;;;;;;;;12.75;10.75;;;;;19.30;65.48;100485.84;146622;602;46020;-68
2023/05/21 08:21:54;;;;;;;;;12.00;11.25;;;;;19.30;65.14;100492.84;146612;590;47919;-66
2023/05/21 08:24:56;;;;;;;;;11.75;9.00;;;;;19.35;65.69;100492.06;146624;626;46010;-67
2023/05/21 08:27:48;;;;;;;;;14.25;11.25;;;;;19.39;65.30;100499.09;146619;604;46015;-67
2023/05/21 08:30:41;;;;;;;;;26.25;24.00;;;;;19.44;65.83;100500.88;146622;605;46020;-67
2023/05/21 08:33:39;;;;;;;;;17.25;12.25;;;;;19.42;65.92;100503.53;146619;569;46014;-67
2023/05/21 08:36:48;;;;;;;;;12.75;11.50;;;;;19.37;64.89;100518.34;146622;652;46021;-67
2023/05/21 08:39:49;;;;;;;;;16.25;13.00;;;;;19.47;64.92;100503.56;146619;656;46012;-68
2023/05/21 08:43:15;;;;;;;;;16.25;16.25;;;;;19.46;64.45;100502.69;146624;575;46010;-67
2023/05/21 08:46:24;;;;;;;;;15.00;15.00;;;;;16.79;63.43;100054.72;146619;640;46918;-67
2023/05/21 08:49:41;;;;;;;;;14.00;14.00;;;;;19.39;65.87;100503.47;146623;589;46010;-66
2023/05/21 08:52:36;;;;;;;;;15.50;14.50;;;;;19.37;65.49;100507.81;146619;571;46016;-66
2023/05/21 08:55:58;;;;;;;;;14.50;13.75;;;;;16.72;63.86;100052.84;146620;619;45918;-67
2023/05/21 08:58:55;;;;;;;;;15.50;14.50;;;;;19.33;65.74;100501.66;146617;572;46017;-66
2023/05/21 09:01:51;;;;;;;;;15.00;14.00;;;;;19.36;65.71;100506.94;146623;624;46012;-66
2023/05/21 09:05:00;;;;;;;;;19.00;15.00;;;;;19.43;65.56;100509.66;146617;602;46016;-67
2023/05/21 09:08:36;;;;;;;;;12.50;11.75;;;;;19.46;65.96;100505.31;146626;577;46010;-67
2023/05/21 09:11:49;;;;;;;;;19.00;13.50;;;;;19.48;65.45;100503.59;146620;697;46012;-66
2023/05/21 09:14:50;;;;;;;;;16.50;15.50;;;;;19.50;66.11;100500.97;146620;571;46021;-67
2023/05/21 09:17:44;;;;;;;;;17.00;13.50;;;;;19.54;65.52;100508.91;146616;569;47016;-67
2023/05/21 09:20:44;;;;;;;;;16.75;15.75;;;;;19.60;66.38;100500.22;146626;620;46010;-68
2023/05/21 09:23:54;;;;;;;;;16.75;14.00;;;;;19.64;65.31;100507.31;146619;590;46016;-67
2023/05/21 09:27:04;;;;;;;;;17.50;17.00;;;;;19.70;64.53;100510.00;146625;651;45020;-67
2023/05/21 09:30:05;;;;;;;;;21.75;15.75;;;;;19.73;65.79;100510.03;146619;570;45042;-67
2023/05/21 09:33:17;;;;;;;;;16.25;14.75;;;;;19.72;65.19;100507.38;146625;575;46012;-67
2023/05/21 09:36:52;;;;;;;;;16.50;15.50;;;;;19.66;64.50;100515.19;146620;677;45018;-67
2023/05/21 09:40:03;;;;;;;;;17.75;16.25;;;;;19.59;65.64;100517.75;146623;563;45020;-67
2023/05/21 09:43:06;;;;;;;;;19.75;16.25;;;;;19.52;66.28;100522.91;146618;590;46017;-67
2023/05/21 09:46:14;;;;;;;;;16.75;15.00;;;;;19.44;66.22;100524.56;146623;580;47010;-67
2023/05/21 09:49:42;;;;;;;;;12.00;11.50;;;;;19.36;66.33;100525.34;146620;689;46014;-67
2023/05/21 09:52:48;;;;;;;;;15.00;12.75;;;;;19.30;67.19;100527.91;146619;668;46021;-68
2023/05/21 09:55:57;;;;;;;;;;;;;;;;;;;;;
2023/05/21 09:59:00;;;;;;;;;27.50;20.25;;;;;19.22;66.95;100529.56;146617;569;46021;-67
2023/05/21 10:02:01;;;;;;;;;17.25;14.00;;;;;19.27;66.71;100527.88;146617;572;46016;-68
2023/05/21 10:05:06;;;;;;;;;30.25;27.75;;;;;19.33;67.21;100530.56;146623;596;46010;-67
2023/05/21 10:08:22;;;;;;;;;28.75;25.75;;;;;16.46;66.19;100024.53;146616;604;46012;-67
2023/05/21 10:11:33;;;;;;;;;20.75;20.00;;;;;19.41;66.41;100521.87;146622;716;46012;-66
2023/05/21 10:14:33;;;;;;;;;34.75;28.75;;;;;19.44;66.44;100529.81;146619;573;46012;-66
2023/05/21 10:17:46;;;;;;;;;20.50;19.00;;;;;19.47;66.98;100525.50;146621;579;46010;-66
2023/05/21 10:20:45;;;;;;;;;19.50;16.00;;;;;19.48;67.53;100523.75;146615;595;48014;-66
2023/05/21 10:23:56;;;;;;;;;20.00;16.75;;;;;19.50;67.74;100527.25;146621;575;46020;-66
2023/05/21 10:26:54;;;;;;;;;25.75;21.00;;;;;19.52;67.86;100517.66;146619;610;46016;-67
2023/05/21 10:29:50;;;;;;;;;13.75;13.75;;;;;19.53;68.38;100516.78;146618;716;47011;-67
2023/05/21 10:32:45;;;;;;;;;17.75;15.25;;;;;19.53;68.12;100525.56;146619;578;46012;-66
2023/05/21 10:35:57;;;;;;;;;20.00;17.25;;;;;19.54;66.41;100535.22;146620;569;47010;-69
2023/05/21 10:39:29;;;;;;;;;;;;;;;;;;;;;
2023/05/21 10:43:10;;;;;;;;;16.25;13.00;;;;;17.05;65.54;100095.28;146624;579;46010;-67
2023/05/21 10:46:43;;;;;;;;;16.00;14.00;;;;;17.06;66.54;100101.41;146620;567;46014;-67
2023/05/21 10:50:45;;;;;;;;;21.50;18.75;;;;;19.61;65.99;100537.03;146622;578;46020;-67
2023/05/21 10:54:14;;;;;;;;;18.50;17.00;;;;;17.00;65.71;100083.84;146620;604;46013;-68
2023/05/21 10:57:57;;;;;;;;;20.50;19.00;;;;;19.65;67.18;100537.12;146618;633;46010;-66
2023/05/21 11:01:06;;;;;;;;;15.00;14.00;;;;;19.66;66.89;100538.87;146620;585;46013;-66
2023/05/21 11:04:07;;;;;;;;;20.25;18.00;;;;;19.64;67.70;100540.59;146620;564;46020;-66
2023/05/21 11:07:08;;;;;;;;;18.75;15.75;;;;;19.65;67.76;100540.62;146619;583;46016;-67
2023/05/21 11:10:48;;;;;;;;;20.25;17.75;;;;;16.92;65.54;100082.00;146621;573;46020;-66
2023/05/21 11:14:03;;;;;;;;;19.00;18.00;;;;;19.68;67.02;100537.16;146618;569;46016;-66
2023/05/21 11:17:19;;;;;;;;;13.75;12.00;;;;;19.71;67.16;100539.81;146620;622;46021;-66
2023/05/21 11:20:30;;;;;;;;;16.00;15.00;;;;;19.71;67.12;100531.94;146618;575;46016;-66
2023/05/21 11:23:33;;;;;;;;;16.00;15.00;;;;;19.74;67.09;100538.09;146619;573;46010;-66
2023/05/21 11:27:05;;;;;;;;;18.00;17.50;;;;;19.72;66.27;100553.00;146618;592;46012;-66
2023/05/21 11:30:02;;;;;;;;;30.75;26.25;;;;;19.81;66.51;100534.69;146622;583;46021;-66
2023/05/21 11:33:38;;;;;;;;;18.00;17.50;;;;;17.11;65.83;100062.19;146616;619;46016;-65
2023/05/21 11:36:34;;;;;;;;;19.25;17.50;;;;;19.91;66.85;100537.41;146619;593;46021;-66
2023/05/21 11:39:39;;;;;;;;;22.25;20.50;;;;;19.99;65.78;100538.34;146618;601;46012;-65
2023/05/21 11:42:42;;;;;;;;;20.50;20.00;;;;;20.07;66.34;100539.31;146619;599;47020;-68
2023/05/21 11:45:45;;;;;;;;;19.50;15.25;;;;;20.12;65.66;100534.09;146620;602;46013;-65
2023/05/21 11:49:03;;;;;;;;;16.75;14.75;;;;;20.16;64.70;100533.28;146622;660;46046;-65
2023/05/21 11:52:11;;;;;;;;;18.00;17.75;;;;;20.22;65.38;100534.19;146622;569;45017;-66
2023/05/21 11:55:14;;;;;;;;;15.25;14.50;;;;;20.34;64.94;100536.03;146623;634;46010;-67
2023/05/21 11:58:18;;;;;;;;;14.50;13.00;;;;;20.44;64.16;100531.75;146619;570;46012;-64
2023/05/21 12:01:29;;;;;;;;;14.50;14.00;;;;;20.57;64.01;100528.37;146614;681;47916;-65
2023/05/21 12:04:50;;;;;;;;;17.50;14.00;;;;;18.11;63.32;100080.06;146619;609;45016;-67
2023/05/21 12:08:17;;;;;;;;;15.25;14.75;;;;;20.78;64.27;100514.47;146623;581;46021;-65
2023/05/21 12:11:25;;;;;;;;;16.25;14.00;;;;;20.96;63.63;100517.19;146618;676;46016;-66
2023/05/21 12:14:25;;;;;;;;;13.00;11.75;;;;;21.13;61.79;100521.69;146625;573;45021;-65
2023/05/21 12:17:34;;;;;;;;;20.25;18.25;;;;;21.30;61.17;100513.84;146619;574;46014;-65
2023/05/21 12:20:32;;;;;;;;;17.25;13.50;;;;;21.44;61.61;100509.53;146621;672;46010;-66
2023/05/21 12:23:40;;;;;;;;;13.00;12.00;;;;;21.48;61.77;100508.66;146621;639;46014;-67
2023/05/21 12:26:48;;;;;;;;;18.25;15.25;;;;;19.34;60.26;100135.34;146622;676;47010;-65
2023/05/21 12:29:51;;;;;;;;;13.50;12.75;;;;;21.52;60.47;100514.81;146620;707;46017;-65
2023/05/21 12:32:52;;;;;;;;;13.75;13.00;;;;;21.53;59.99;100512.22;146623;606;46020;-65
2023/05/21 12:35:59;;;;;;;;;14.25;12.00;;;;;18.96;59.93;100082.56;146619;584;47015;-65
2023/05/21 12:39:09;;;;;;;;;12.00;12.00;;;;;21.47;59.84;100506.91;146623;649;46010;-65
2023/05/21 12:42:16;;;;;;;;;10.75;10.75;;;;;21.38;59.98;100504.25;146619;640;46016;-65
2023/05/21 12:45:24;;;;;;;;;12.50;11.75;;;;;21.36;59.08;100500.72;146624;581;46010;-65
2023/05/21 12:48:33;;;;;;;;;12.25;10.50;;;;;21.37;58.78;100494.53;146619;675;46016;-66
2023/05/21 12:52:08;;;;;;;;;12.00;11.00;;;;;21.40;58.86;100497.19;146622;584;46011;-65
2023/05/21 12:55:34;;;;;;;;;12.25;10.25;;;;;21.42;58.18;100487.53;146617;666;46012;-65
2023/05/21 12:58:32;;;;;;;;;11.75;11.75;;;;;21.44;58.56;100486.69;146704;595;46013;-65
2023/05/21 13:02:26;;;;;;;;;;;;;;;;;;;;;
2023/05/21 13:05:22;;;;;;;;;12.25;10.75;;;;;21.45;58.50;100482.28;146619;574;46020;-66
2023/05/21 13:08:39;;;;;;;;;12.50;11.75;;;;;21.44;57.78;100485.81;146617;577;46012;-66
2023/05/21 13:11:38;;;;;;;;;12.25;12.00;;;;;21.40;57.87;100487.56;146619;584;46020;-66
2023/05/21 13:14:30;;;;;;;;;13.50;12.00;;;;;21.37;57.59;100478.72;146617;612;47012;-65
2023/05/21 13:17:28;;;;;;;;;13.00;11.50;;;;;21.28;57.90;100486.56;146619;679;46020;-65
2023/05/21 13:20:30;;;;;;;;;14.00;14.00;;;;;21.20;57.73;100495.34;146616;642;46017;-65
2023/05/21 13:23:28;;;;;;;;;11.50;10.00;;;;;21.12;57.78;100504.06;146622;607;46010;-67
2023/05/21 13:26:27;;;;;;;;;12.00;10.50;;;;;21.02;57.22;100503.16;146616;618;46024;-65
2023/05/21 13:29:35;;;;;;;;;9.00;8.25;;;;;20.94;59.70;100499.62;146621;598;46020;-68
2023/05/21 13:32:50;;;;;;;;;13.50;11.50;;;;;20.90;60.10;100496.09;146620;609;46012;-66
2023/05/21 13:36:09;;;;;;;;;10.00;9.75;;;;;20.89;60.27;100496.94;146624;566;46010;-66
2023/05/21 13:39:06;;;;;;;;;12.75;11.75;;;;;20.96;61.40;100496.09;146618;595;46016;-66
2023/05/21 13:42:12;;;;;;;;;10.75;9.25;;;;;21.06;60.57;100488.22;146615;673;47020;-66
2023/05/21 13:45:06;;;;;;;;;15.25;11.75;;;;;21.08;60.37;100489.13;146618;574;46017;-66
2023/05/21 13:48:24;;;;;;;;;9.50;9.25;;;;;20.86;61.63;100462.66;146623;581;46010;-66
2023/05/21 13:51:29;;;;;;;;;12.75;10.25;;;;;20.95;60.97;100480.28;146619;631;46033;-66
2023/05/21 13:54:44;;;;;;;;;14.25;12.00;;;;;20.96;61.03;100489.94;146618;678;46020;-66
2023/05/21 13:57:56;;;;;;;;;10.00;9.00;;;;;18.62;60.89;100082.25;146618;642;46012;-67
2023/05/21 14:01:09;;;;;;;;;11.00;10.00;;;;;20.96;61.72;100479.41;146621;695;46020;-66
2023/05/21 14:04:13;;;;;;;;;11.50;11.50;;;;;20.96;61.31;100479.41;146615;575;46917;-66
2023/05/21 14:07:10;;;;;;;;;13.00;11.75;;;;;21.02;61.34;100479.44;146614;658;46010;-66
2023/05/21 14:10:05;;;;;;;;;13.25;12.75;;;;;21.07;60.68;100463.66;146616;575;46016;-66
2023/05/21 14:13:09;;;;;;;;;12.00;10.75;;;;;18.16;60.82;99966.41;146618;565;47011;-66
2023/05/21 14:16:23;;;;;;;;;11.50;10.50;;;;;21.17;61.53;100468.09;146618;577;46016;-66
2023/05/21 14:19:33;;;;;;;;;11.75;11.75;;;;;19.86;59.99;100218.97;146619;578;46020;-65
2023/05/21 14:22:33;;;;;;;;;12.00;11.75;;;;;21.36;59.51;100462.03;146617;605;46016;-65
2023/05/21 14:25:52;;;;;;;;;;;;;;;;;;;;;
2023/05/21 14:28:54;;;;;;;;;9.50;9.50;;;;;21.58;59.07;100448.88;146616;652;46016;-66
2023/05/21 14:31:57;;;;;;;;;12.00;11.00;;;;;21.64;58.40;100443.63;146623;691;46010;-65
2023/05/21 14:35:09;;;;;;;;;12.50;11.50;;;;;21.66;58.65;100437.47;146617;564;47013;-66
2023/05/21 14:38:01;;;;;;;;;14.00;12.75;;;;;21.72;58.80;100436.59;146621;638;46010;-65
2023/05/21 14:41:07;;;;;;;;;12.25;11.25;;;;;21.82;58.64;100432.22;146623;644;46016;-67
2023/05/21 14:44:07;;;;;;;;;14.00;13.25;;;;;21.88;57.62;100441.00;146619;634;46012;-65
2023/05/21 14:47:17;;;;;;;;;;;;;;;;;;;;;
2023/05/21 14:50:28;;;;;;;;;12.33;11.33;;;;;21.92;57.33;100440.13;146623;672;46021;-64